createdAt,value
2023-04-14T00:01:34.235Z,79.05
2023-04-14T00:04:00.834Z,78.96
2023-04-14T00:06:27.240Z,79.07
2023-04-14T00:08:53.514Z,79.35
2023-04-14T00:11:19.835Z,79.59
2023-04-14T00:13:45.990Z,79.63
2023-04-14T00:16:12.258Z,79.73
2023-04-14T00:18:38.530Z,79.85
2023-04-14T00:21:04.688Z,80.15
2023-04-14T00:23:31.022Z,80.17
2023-04-14T00:25:57.167Z,80.10
2023-04-14T00:28:23.338Z,80.26
2023-04-14T00:30:49.586Z,80.60
2023-04-14T00:33:15.826Z,80.80
2023-04-14T00:35:42.012Z,80.90
2023-04-14T00:38:08.126Z,80.79
2023-04-14T00:40:34.251Z,80.61
2023-04-14T00:43:00.483Z,80.67
2023-04-14T00:45:26.740Z,80.57
2023-04-14T00:47:53.034Z,80.78
2023-04-14T00:50:19.276Z,80.90
2023-04-14T00:52:45.446Z,80.98
2023-04-14T00:55:11.637Z,80.99
2023-04-14T00:57:37.846Z,81.08
2023-04-14T01:00:04.740Z,81.17
2023-04-14T01:02:31.672Z,81.09
2023-04-14T01:04:58.294Z,81.00
2023-04-14T01:07:24.868Z,81.10
2023-04-14T01:09:51.044Z,81.09
2023-04-14T01:12:17.216Z,80.82
2023-04-14T01:14:43.364Z,80.78
2023-04-14T01:17:09.549Z,80.57
2023-04-14T01:19:35.655Z,80.66
2023-04-14T01:22:01.825Z,80.68
2023-04-14T01:24:28.075Z,80.62
2023-04-14T01:26:54.332Z,80.59
2023-04-14T01:29:20.701Z,80.76
2023-04-14T01:31:46.803Z,80.82
2023-04-14T01:34:12.986Z,80.67
2023-04-14T01:36:39.071Z,80.55
2023-04-14T01:39:05.162Z,80.74
2023-04-14T01:41:31.271Z,80.65
2023-04-14T01:43:57.358Z,80.53
2023-04-14T01:46:23.554Z,80.89
2023-04-14T01:48:49.976Z,81.16
2023-04-14T01:51:16.098Z,81.45
2023-04-14T01:53:42.196Z,81.78
2023-04-14T01:56:08.290Z,81.90
2023-04-14T01:58:34.668Z,81.75
2023-04-14T02:01:01.055Z,81.56
2023-04-14T02:03:27.445Z,81.27
2023-04-14T02:05:53.617Z,81.11
2023-04-14T02:08:19.719Z,80.87
2023-04-14T02:10:45.842Z,80.82
2023-04-14T02:13:12.120Z,80.92
2023-04-14T02:15:38.290Z,80.84
2023-04-14T02:18:04.761Z,80.80
2023-04-14T02:20:30.902Z,80.72
2023-04-14T02:22:57.052Z,80.89
2023-04-14T02:25:23.284Z,80.99
2023-04-14T02:27:49.650Z,81.02
2023-04-14T02:30:15.732Z,81.03
2023-04-14T02:32:41.975Z,80.79
2023-04-14T02:35:08.190Z,80.70
2023-04-14T02:37:34.291Z,80.66
2023-04-14T02:40:00.420Z,80.70
2023-04-14T02:42:26.554Z,81.01
2023-04-14T02:44:52.713Z,81.45
2023-04-14T02:47:18.833Z,81.59
2023-04-14T02:49:46.012Z,81.60
2023-04-14T02:52:12.126Z,81.64
2023-04-14T02:54:38.240Z,82.16
2023-04-14T02:57:04.302Z,82.31
2023-04-14T02:59:30.824Z,82.74
2023-04-14T03:02:01.479Z,83.76
2023-04-14T03:04:28.790Z,84.23
2023-04-14T03:06:55.207Z,84.56
2023-04-14T03:09:21.506Z,85.05
2023-04-14T03:11:47.612Z,85.21
2023-04-14T03:14:13.839Z,85.36
2023-04-14T03:16:40.264Z,85.58
2023-04-14T03:19:07.497Z,85.52
2023-04-14T03:21:33.584Z,85.21
2023-04-14T03:24:00.107Z,84.96
2023-04-14T03:26:26.295Z,84.87
2023-04-14T03:28:52.801Z,84.67
2023-04-14T03:31:19.013Z,84.56
2023-04-14T03:33:45.972Z,84.72
2023-04-14T03:36:12.228Z,85.10
2023-04-14T03:38:38.365Z,85.27
2023-04-14T03:41:04.930Z,85.07
2023-04-14T03:43:32.696Z,84.93
2023-04-14T03:45:58.991Z,84.96
2023-04-14T03:48:29.423Z,84.81
2023-04-14T03:50:57.027Z,84.62
2023-04-14T03:53:23.168Z,84.51
2023-04-14T03:55:49.332Z,84.41
2023-04-14T03:58:16.077Z,84.27
2023-04-14T04:00:42.445Z,84.21
2023-04-14T04:03:08.934Z,84.12
2023-04-14T04:05:35.413Z,84.00
2023-04-14T04:08:02.459Z,84.07
2023-04-14T04:10:29.427Z,84.07
2023-04-14T04:12:56.266Z,84.32
2023-04-14T04:15:22.514Z,84.56
2023-04-14T04:17:48.612Z,84.64
2023-04-14T04:20:14.981Z,84.84
2023-04-14T04:22:41.484Z,84.84
2023-04-14T04:25:07.768Z,84.98
2023-04-14T04:27:34.097Z,84.97
2023-04-14T04:30:00.633Z,85.01
2023-04-14T04:32:26.821Z,84.92
2023-04-14T04:34:53.099Z,84.80
2023-04-14T04:37:19.293Z,84.83
2023-04-14T04:39:47.338Z,84.84
2023-04-14T04:42:13.478Z,84.93
2023-04-14T04:44:39.613Z,84.65
2023-04-14T04:47:05.697Z,83.82
2023-04-14T04:49:31.804Z,83.58
2023-04-14T04:51:59.045Z,83.47
2023-04-14T04:54:26.458Z,83.37
2023-04-14T04:56:53.211Z,83.28
2023-04-14T04:59:19.346Z,83.29
2023-04-14T05:01:45.567Z,83.04
2023-04-14T05:04:11.973Z,82.98
2023-04-14T05:06:38.296Z,82.60
2023-04-14T05:09:04.845Z,82.18
2023-04-14T05:11:31.087Z,81.43
2023-04-14T05:13:57.292Z,80.64
2023-04-14T05:16:24.063Z,79.81
2023-04-14T05:18:50.441Z,79.19
2023-04-14T05:21:16.546Z,78.38
2023-04-14T05:23:42.992Z,78.26
2023-04-14T05:26:32.256Z,77.97
2023-04-14T05:28:55.637Z,78.06
2023-04-14T05:31:22.148Z,77.86
2023-04-14T05:33:48.602Z,77.77
2023-04-14T05:36:14.738Z,77.73
2023-04-14T05:38:41.021Z,77.40
2023-04-14T05:41:07.288Z,76.99
2023-04-14T05:43:33.416Z,75.97
2023-04-14T05:46:00.818Z,75.78
2023-04-14T05:48:29.776Z,75.47
2023-04-14T05:50:55.966Z,74.87
2023-04-14T05:53:22.958Z,75.18
2023-04-14T05:55:49.069Z,74.10
2023-04-14T05:58:15.232Z,73.78
2023-04-14T06:00:41.343Z,72.85
2023-04-14T06:03:07.859Z,72.75
2023-04-14T06:05:34.438Z,72.76
2023-04-14T06:08:00.738Z,72.23
2023-04-14T06:10:26.866Z,71.92
2023-04-14T06:12:56.149Z,71.96
2023-04-14T06:15:26.271Z,71.75
2023-04-14T06:17:52.433Z,71.69
2023-04-14T06:20:20.569Z,71.36
2023-04-14T06:22:46.865Z,70.64
2023-04-14T06:25:12.955Z,70.11
2023-04-14T06:27:39.083Z,69.57
2023-04-14T06:30:06.094Z,69.00
2023-04-14T06:32:32.387Z,69.06
2023-04-14T06:34:58.750Z,69.05
2023-04-14T06:37:25.058Z,68.80
2023-04-14T06:39:51.150Z,68.35
2023-04-14T06:42:17.455Z,67.72
2023-04-14T06:44:43.590Z,67.79
2023-04-14T06:47:09.705Z,67.24
2023-04-14T06:49:36.458Z,67.59
2023-04-14T06:52:03.138Z,68.13
2023-04-14T06:54:31.165Z,67.71
2023-04-14T06:56:59.476Z,67.71
2023-04-14T06:59:28.548Z,67.18
2023-04-14T07:01:54.992Z,66.64
2023-04-14T07:04:21.372Z,66.14
2023-04-14T07:06:47.542Z,65.52
2023-04-14T07:09:13.702Z,65.87
2023-04-14T07:11:39.984Z,64.97
2023-04-14T07:14:06.082Z,64.50
2023-04-14T07:16:32.700Z,64.92
2023-04-14T07:18:58.902Z,65.13
2023-04-14T07:21:25.052Z,64.86
2023-04-14T07:23:51.257Z,63.61
2023-04-14T07:26:17.401Z,63.82
2023-04-14T07:28:43.553Z,63.72
2023-04-14T07:31:10.040Z,63.30
2023-04-14T07:33:36.471Z,62.62
2023-04-14T07:36:04.252Z,62.06
2023-04-14T07:38:30.750Z,62.13
2023-04-14T07:40:56.941Z,62.10
2023-04-14T07:43:23.455Z,61.93
2023-04-14T07:45:49.608Z,61.87
2023-04-14T07:48:18.881Z,61.78
2023-04-14T07:50:45.527Z,61.78
2023-04-14T07:53:11.623Z,61.45
2023-04-14T07:55:37.783Z,61.69
2023-04-14T07:58:03.883Z,61.93
2023-04-14T08:00:30.019Z,61.78
2023-04-14T08:02:56.313Z,61.77
2023-04-14T08:05:22.639Z,61.49
2023-04-14T08:07:48.908Z,61.99
2023-04-14T08:10:15.417Z,62.22
2023-04-14T08:12:41.783Z,62.80
2023-04-14T08:15:08.931Z,62.46
2023-04-14T08:17:35.464Z,62.82
2023-04-14T08:20:01.606Z,62.56
2023-04-14T08:22:27.767Z,62.33
2023-04-14T08:24:53.930Z,62.56
2023-04-14T08:27:20.304Z,62.37
2023-04-14T08:29:46.548Z,62.49
2023-04-14T08:32:12.804Z,62.09
2023-04-14T08:34:38.958Z,62.42
2023-04-14T08:37:25.109Z,62.56
2023-04-14T08:39:51.293Z,61.88
2023-04-14T08:42:17.375Z,61.53
2023-04-14T08:44:43.615Z,60.41
2023-04-14T08:47:09.700Z,60.32
2023-04-14T08:49:35.792Z,59.68
2023-04-14T08:52:02.837Z,60.59
2023-04-14T08:54:28.944Z,59.22
2023-04-14T08:56:55.164Z,58.71
2023-04-14T08:59:21.361Z,58.50
2023-04-14T09:01:47.557Z,57.76
2023-04-14T09:04:14.142Z,58.14
2023-04-14T09:06:40.645Z,57.44
2023-04-14T09:09:06.966Z,57.50
2023-04-14T09:11:33.256Z,57.54
2023-04-14T09:14:00.224Z,57.94
2023-04-14T09:16:26.634Z,56.77
2023-04-14T09:18:53.023Z,56.89
2023-04-14T09:21:49.522Z,56.75
2023-04-14T09:24:05.930Z,56.92
2023-04-14T09:26:32.120Z,57.17
2023-04-14T09:28:58.212Z,56.71
2023-04-14T09:31:24.410Z,56.02
2023-04-14T09:33:51.028Z,55.73
2023-04-14T09:36:17.594Z,55.93
2023-04-14T09:38:43.815Z,56.27
2023-04-14T09:41:09.951Z,56.07
2023-04-14T09:43:36.084Z,56.07
2023-04-14T09:46:02.282Z,56.17
2023-04-14T09:48:28.748Z,56.45
2023-04-14T09:50:55.412Z,56.44
2023-04-14T09:53:21.590Z,56.80
2023-04-14T09:55:47.720Z,56.68
2023-04-14T09:58:20.469Z,57.09
2023-04-14T10:00:46.579Z,57.20
2023-04-14T10:03:12.930Z,57.70
2023-04-14T10:05:39.140Z,57.37
2023-04-14T10:08:05.908Z,56.61
2023-04-14T10:10:32.090Z,56.14
2023-04-14T10:12:58.232Z,56.46
2023-04-14T10:15:24.494Z,55.29
2023-04-14T10:17:50.718Z,54.83
2023-04-14T10:20:16.916Z,54.85
2023-04-14T10:22:43.351Z,54.46
2023-04-14T10:25:09.547Z,54.98
2023-04-14T10:27:36.061Z,54.80
2023-04-14T10:30:02.298Z,54.55
2023-04-14T10:32:30.635Z,53.79
2023-04-14T10:34:57.972Z,54.09
2023-04-14T10:37:24.389Z,53.44
2023-04-14T10:39:50.613Z,53.99
2023-04-14T10:42:16.742Z,53.71
2023-04-14T10:44:42.821Z,54.21
2023-04-14T10:47:09.079Z,54.31
2023-04-14T10:49:35.376Z,52.62
2023-04-14T10:52:01.687Z,52.44
2023-04-14T10:54:27.890Z,53.13
2023-04-14T10:56:53.980Z,52.41
2023-04-14T10:59:20.168Z,52.12
2023-04-14T11:01:46.427Z,52.06
2023-04-14T11:04:12.888Z,52.43
2023-04-14T11:06:40.148Z,52.69
2023-04-14T11:09:06.343Z,53.31
2023-04-14T11:11:32.493Z,53.22
2023-04-14T11:13:58.631Z,52.22
2023-04-14T11:16:25.711Z,51.58
2023-04-14T11:18:51.791Z,51.30
2023-04-14T11:21:17.883Z,50.97
2023-04-14T11:23:44.404Z,51.47
2023-04-14T11:26:10.544Z,51.78
2023-04-14T11:28:36.899Z,51.01
2023-04-14T11:31:03.093Z,51.17
2023-04-14T11:33:29.975Z,50.59
2023-04-14T11:35:56.222Z,51.05
2023-04-14T11:38:22.390Z,50.53
2023-04-14T11:40:51.091Z,50.99
2023-04-14T11:43:17.271Z,50.91
2023-04-14T11:45:43.486Z,50.98
2023-04-14T11:48:09.706Z,51.05
2023-04-14T11:50:38.250Z,50.87
2023-04-14T11:53:04.463Z,50.66
2023-04-14T11:55:30.763Z,50.70
2023-04-14T11:57:57.323Z,50.84
2023-04-14T12:00:23.940Z,51.61
2023-04-14T12:02:50.449Z,51.39
2023-04-14T12:05:16.701Z,50.97
2023-04-14T12:07:43.925Z,50.57
2023-04-14T12:10:10.211Z,50.13
2023-04-14T12:12:37.281Z,50.19
2023-04-14T12:15:04.758Z,50.40
2023-04-14T12:17:31.037Z,49.82
2023-04-14T12:19:57.192Z,50.28
2023-04-14T12:22:23.432Z,50.34
2023-04-14T12:24:49.566Z,50.77
2023-04-14T12:27:15.784Z,50.74
2023-04-14T12:29:42.274Z,51.05
2023-04-14T12:32:08.550Z,50.99
2023-04-14T12:34:34.935Z,51.02
2023-04-14T12:37:01.950Z,50.90
2023-04-14T12:39:28.218Z,50.53
2023-04-14T12:41:54.890Z,51.46
2023-04-14T12:44:21.462Z,51.44
2023-04-14T12:46:48.701Z,51.47
2023-04-14T12:49:14.846Z,51.60
2023-04-14T12:51:41.062Z,51.46
2023-04-14T12:54:08.279Z,51.07
2023-04-14T12:56:35.523Z,51.36
2023-04-14T12:59:02.478Z,51.28
2023-04-14T13:01:28.938Z,51.22
2023-04-14T13:03:55.624Z,51.18
2023-04-14T13:06:22.423Z,50.68
2023-04-14T13:08:48.672Z,50.67
2023-04-14T13:11:15.047Z,51.02
2023-04-14T13:13:41.761Z,51.36
2023-04-14T13:16:13.491Z,51.18
2023-04-14T13:18:41.800Z,50.63
2023-04-14T13:21:07.891Z,50.67
2023-04-14T13:23:34.019Z,50.83
2023-04-14T13:26:00.891Z,50.82
2023-04-14T13:28:26.976Z,50.87
2023-04-14T13:30:53.204Z,50.49
2023-04-14T13:33:19.512Z,50.66
2023-04-14T13:35:45.580Z,50.88
2023-04-14T13:38:11.711Z,50.91
2023-04-14T13:40:37.897Z,51.37
2023-04-14T13:43:04.505Z,51.67
2023-04-14T13:45:31.562Z,51.97
2023-04-14T13:47:57.779Z,52.13
2023-04-14T13:50:23.944Z,52.33
2023-04-14T13:52:50.063Z,52.83
2023-04-14T13:55:16.248Z,53.23
2023-04-14T13:57:42.400Z,53.39
2023-04-14T14:00:08.787Z,53.58
2023-04-14T14:02:35.066Z,54.01
2023-04-14T14:05:01.440Z,54.00
2023-04-14T14:07:27.539Z,54.26
2023-04-14T14:09:53.706Z,54.08
2023-04-14T14:12:20.091Z,54.14
2023-04-14T14:14:46.887Z,54.03
2023-04-14T14:17:13.067Z,53.96
2023-04-14T14:19:39.333Z,53.65
2023-04-14T14:22:06.701Z,53.91
2023-04-14T14:24:32.852Z,54.31
2023-04-14T14:26:58.951Z,54.72
2023-04-14T14:29:25.110Z,55.23
2023-04-14T14:31:51.278Z,55.78
2023-04-14T14:34:18.063Z,56.08
2023-04-14T14:36:47.298Z,56.50
2023-04-14T14:39:13.519Z,57.61
2023-04-14T14:41:39.610Z,58.45
2023-04-14T14:44:05.985Z,59.69
2023-04-14T14:46:32.464Z,60.40
2023-04-14T14:48:58.645Z,61.01
2023-04-14T14:51:26.736Z,61.59
2023-04-14T14:53:59.230Z,62.36
2023-04-14T14:56:30.549Z,63.05
2023-04-14T14:58:56.790Z,63.59
2023-04-14T15:01:23.877Z,64.04
2023-04-14T15:03:50.208Z,64.64
2023-04-14T15:06:16.466Z,64.88
2023-04-14T15:08:43.168Z,65.35
2023-04-14T15:11:09.536Z,65.95
2023-04-14T15:13:36.116Z,66.04
2023-04-14T15:16:02.422Z,66.07
2023-04-14T15:18:28.968Z,66.72
2023-04-14T15:20:55.561Z,66.87
2023-04-14T15:23:21.977Z,66.69
2023-04-14T15:25:48.072Z,66.92
2023-04-14T15:28:14.234Z,67.22
2023-04-14T15:30:40.468Z,67.39
2023-04-14T15:33:06.561Z,67.88
2023-04-14T15:35:32.684Z,68.24
2023-04-14T15:37:58.852Z,68.45
2023-04-14T15:40:25.167Z,68.77
2023-04-14T15:42:51.403Z,68.76
2023-04-14T15:45:17.671Z,69.20
2023-04-14T15:47:45.475Z,69.16
2023-04-14T15:50:12.897Z,69.84
2023-04-14T15:52:39.849Z,70.41
2023-04-14T15:55:06.524Z,70.69
2023-04-14T15:57:32.671Z,71.75
2023-04-14T15:59:59.092Z,72.34
2023-04-14T16:02:25.444Z,72.59
2023-04-14T16:04:51.714Z,72.90
2023-04-14T16:07:17.837Z,73.11
2023-04-14T16:09:44.004Z,73.56
2023-04-14T16:12:10.686Z,73.89
2023-04-14T16:14:36.979Z,73.96
2023-04-14T16:17:03.160Z,73.95
2023-04-14T16:19:29.341Z,73.78
2023-04-14T16:21:56.218Z,73.98
2023-04-14T16:24:22.515Z,74.11
2023-04-14T16:26:48.841Z,74.26
2023-04-14T16:29:15.298Z,74.54
2023-04-14T16:31:41.458Z,75.33
2023-04-14T16:34:07.691Z,76.52
2023-04-14T16:36:33.778Z,77.53
2023-04-14T16:39:00.487Z,78.35
2023-04-14T16:41:26.981Z,78.80
2023-04-14T16:43:53.112Z,79.96
2023-04-14T16:46:19.219Z,80.57
2023-04-14T16:48:45.374Z,81.38
2023-04-14T16:51:11.567Z,82.19
2023-04-14T16:53:37.994Z,82.50
2023-04-14T16:56:04.907Z,82.95
2023-04-14T16:58:31.243Z,83.48
2023-04-14T17:00:57.441Z,84.04
2023-04-14T17:03:24.042Z,84.23
2023-04-14T17:05:50.339Z,84.04
2023-04-14T17:08:16.849Z,83.80
2023-04-14T17:10:43.412Z,84.27
2023-04-14T17:13:09.571Z,84.28
2023-04-14T17:15:35.681Z,84.05
2023-04-14T17:18:02.008Z,83.45
2023-04-14T17:20:28.110Z,83.12
2023-04-14T17:22:54.229Z,83.02
2023-04-14T17:25:20.416Z,82.73
2023-04-14T17:27:46.881Z,82.60
2023-04-14T17:30:13.151Z,82.55
2023-04-14T17:32:39.614Z,82.37
2023-04-14T17:35:05.986Z,82.57
2023-04-14T17:37:32.088Z,82.31
2023-04-14T17:39:58.442Z,82.37
2023-04-14T17:42:25.686Z,82.36
2023-04-14T17:44:51.978Z,82.32
2023-04-14T17:47:20.873Z,82.18
2023-04-14T17:49:48.050Z,82.15
2023-04-14T17:52:14.149Z,82.15
2023-04-14T17:54:40.327Z,82.00
2023-04-14T17:57:06.702Z,81.96
2023-04-14T17:59:32.862Z,81.88
2023-04-14T18:01:59.304Z,81.90
2023-04-14T18:04:25.628Z,82.02
2023-04-14T18:06:52.095Z,82.00
2023-04-14T18:09:18.421Z,81.89
2023-04-14T18:11:44.615Z,82.02
2023-04-14T18:14:10.704Z,82.10
2023-04-14T18:16:36.860Z,82.73
2023-04-14T18:19:04.190Z,82.66
2023-04-14T18:21:30.389Z,82.90
2023-04-14T18:26:26.980Z,83.99
2023-04-14T18:28:53.601Z,84.04
2023-04-14T18:31:20.023Z,83.69
2023-04-14T18:33:46.702Z,83.71
2023-04-14T18:36:12.780Z,83.89
2023-04-14T18:38:38.973Z,84.15
2023-04-14T18:41:05.277Z,83.74
2023-04-14T18:43:32.027Z,83.80
2023-04-14T18:45:58.223Z,83.96
2023-04-14T18:48:24.344Z,83.95
2023-04-14T18:50:50.476Z,84.11
2023-04-14T18:53:16.940Z,84.33
2023-04-14T18:55:45.173Z,84.33
2023-04-14T18:58:12.342Z,84.64
2023-04-14T19:00:38.964Z,84.49
2023-04-14T19:03:06.371Z,84.29
2023-04-14T19:05:34.460Z,84.09
2023-04-14T19:08:01.776Z,84.06
2023-04-14T19:10:28.181Z,84.01
2023-04-14T19:12:54.551Z,83.89
2023-04-14T19:15:20.839Z,83.88
2023-04-14T19:17:47.104Z,83.81
2023-04-14T19:20:13.683Z,83.68
2023-04-14T19:22:40.131Z,83.63
2023-04-14T19:25:06.271Z,83.65
2023-04-14T19:27:34.609Z,83.52
2023-04-14T19:30:03.176Z,83.41
2023-04-14T19:32:29.350Z,83.24
2023-04-14T19:34:55.761Z,83.03
2023-04-14T19:37:22.420Z,82.82
2023-04-14T19:39:49.851Z,82.64
2023-04-14T19:42:16.364Z,82.51
2023-04-14T19:44:42.756Z,82.43
2023-04-14T19:47:11.665Z,82.38
2023-04-14T19:49:37.797Z,82.51
2023-04-14T19:52:04.276Z,82.08
2023-04-14T19:54:30.409Z,81.67
2023-04-14T19:56:56.592Z,81.54
2023-04-14T19:59:22.736Z,81.27
2023-04-14T20:01:50.807Z,81.24
2023-04-14T20:04:17.110Z,81.02
2023-04-14T20:06:46.475Z,80.77
2023-04-14T20:09:12.717Z,80.47
2023-04-14T20:11:38.878Z,80.19
2023-04-14T20:14:05.138Z,80.12
2023-04-14T20:16:31.853Z,80.10
2023-04-14T20:18:57.970Z,80.02
2023-04-14T20:21:24.274Z,80.07
2023-04-14T20:23:50.416Z,79.97
2023-04-14T20:26:16.572Z,79.82
2023-04-14T20:28:43.122Z,79.72
2023-04-14T20:31:09.598Z,79.79
2023-04-14T20:33:36.239Z,79.38
2023-04-14T20:36:02.971Z,79.18
2023-04-14T20:38:29.339Z,79.09
2023-04-14T20:40:55.531Z,79.21
2023-04-14T20:43:21.662Z,79.37
2023-04-14T20:45:48.979Z,79.46
2023-04-14T20:48:15.194Z,79.52
2023-04-14T20:50:42.414Z,79.50
2023-04-14T20:53:09.292Z,79.51
2023-04-14T20:55:35.856Z,79.48
2023-04-14T20:58:02.287Z,79.26
2023-04-14T21:00:28.578Z,79.09
2023-04-14T21:02:55.030Z,78.93
2023-04-14T21:05:21.378Z,78.96
2023-04-14T21:07:47.502Z,79.00
2023-04-14T21:10:14.825Z,78.87
2023-04-14T21:12:41.597Z,78.81
2023-04-14T21:15:50.965Z,78.49
2023-04-14T21:18:13.505Z,78.33
2023-04-14T21:20:39.652Z,78.18
2023-04-14T21:23:05.883Z,78.07
2023-04-14T21:25:33.381Z,78.11
2023-04-14T21:28:00.538Z,77.94
2023-04-14T21:30:26.904Z,77.69
2023-04-14T21:32:53.063Z,77.33
2023-04-14T21:35:19.193Z,77.46
2023-04-14T21:37:45.542Z,77.62
2023-04-14T21:40:11.761Z,77.82
2023-04-14T21:42:37.828Z,77.85
2023-04-14T21:45:05.621Z,78.02
2023-04-14T21:47:31.767Z,78.09
2023-04-14T21:49:57.911Z,78.14
2023-04-14T21:52:24.840Z,78.21
2023-04-14T21:54:51.532Z,78.28
2023-04-14T21:57:17.753Z,78.34
2023-04-14T22:00:07.481Z,78.40
2023-04-14T22:02:33.720Z,78.52
2023-04-14T22:04:59.997Z,78.60
2023-04-14T22:07:26.103Z,78.72
2023-04-14T22:09:52.838Z,78.90
2023-04-14T22:12:18.992Z,78.84
2023-04-14T22:14:45.989Z,78.80
2023-04-14T22:17:12.116Z,78.69
2023-04-14T22:19:38.188Z,78.86
2023-04-14T22:22:04.564Z,79.23
2023-04-14T22:24:30.800Z,79.55
2023-04-14T22:26:56.890Z,79.55
2023-04-14T22:29:23.139Z,79.73
2023-04-14T22:31:49.207Z,79.73
2023-04-14T22:34:15.335Z,79.79
2023-04-14T22:36:41.523Z,79.73
2023-04-14T22:39:07.939Z,79.64
2023-04-14T22:41:34.115Z,79.59
2023-04-14T22:44:00.878Z,79.77
2023-04-14T22:46:27.031Z,80.00
2023-04-14T22:48:55.765Z,80.14
2023-04-14T22:51:22.170Z,80.10
2023-04-14T22:53:48.251Z,80.22
2023-04-14T22:56:14.616Z,80.15
2023-04-14T22:58:41.028Z,80.03
2023-04-14T23:01:19.234Z,79.87
2023-04-14T23:03:51.568Z,79.80
2023-04-14T23:06:19.196Z,79.90
2023-04-14T23:08:45.342Z,80.19
2023-04-14T23:11:11.441Z,80.76
2023-04-14T23:13:37.524Z,81.12
2023-04-14T23:16:03.685Z,81.11
2023-04-14T23:18:29.825Z,81.05
2023-04-14T23:20:56.681Z,80.90
2023-04-14T23:23:23.228Z,81.03
2023-04-14T23:25:49.416Z,81.27
2023-04-14T23:28:15.480Z,81.69
2023-04-14T23:30:44.517Z,82.08
2023-04-14T23:33:10.647Z,81.95
2023-04-14T23:35:38.066Z,81.81
2023-04-14T23:38:04.285Z,81.88
2023-04-14T23:40:30.525Z,82.02
2023-04-14T23:42:58.245Z,82.02
2023-04-14T23:45:24.319Z,81.93
2023-04-14T23:47:50.556Z,81.80
2023-04-14T23:50:17.023Z,81.73
2023-04-14T23:52:43.366Z,81.76
2023-04-14T23:55:09.656Z,81.79
2023-04-14T23:57:36.755Z,81.87
